Main page
METAR-TAF:

METAR-TAF

Airports :

Hévíz–Balaton Airport

Hévíz, Hungary

latitude: 46-41-11N, longitude: 017-09-33E, elevation: 124 m

Current weather observation

The report was made 3 hours and 22 minutes ago, at 15:45 UTC
Wind 8 kt from the North/Northwest
Temperature 13°C
Humidity 88%
Pressure 1026 hPa
Visibility 10 km or more
no clouds below 1500 m and no cumulonimbus

METAR: LHSM 131545Z 34008KT CAVOK 13/11 Q1026

Time: 20:07 (19:07 UTC)

Forecast

The report was made 7 hours and 52 minutes ago, at 11:15 UTC
Forecast valid from 13 at 12 UTC to 13 at 21 UTC
Wind 7 kt from the Southwest
Visibility 10 km or more
no clouds below 1500 m and no cumulonimbus
Temporary
from 13 at 12 UTC to 13 at 15 UTC
Scattered clouds at a height of 3300 ft
Broken clouds at a height of 20000 ft
Becoming
from 13 at 12 UTC to 13 at 15 UTC
Wind 7 kt from the North/Northwest

TAF: LHSM 131115Z 1312/1321 23007KT CAVOK TEMPO 1312/1315 SCT033 BKN200 BECMG 1312/1315 34007KT

Weather observations and forecasts of more than 4000 airports (METAR and TAF reports).

The available stations are represented by yellow and red dots on the map.

Hover mouse over dot to see the name of the station.

Then click to see weather observations and forecasts.

To change the map : click on the green buttons with a black cross to zoom in, on the green button with a dash to zoom out, or on the green arrows for adjacent maps.


METAR-TAF: